Time;durP1;ratioP1;P1;durP2;ratioP2;P2;SDS_P1;SDS_P2;PMS_P1;PMS_P2;Temp;Humidity;BMP_temperature;BMP_pressure;BME280_temperature;BME280_humidity;BME280_pressure;Samples;Min_cycle;Max_cycle;Signal;HPM_P1;HPM_P2
2023/12/21 00:01:23;;;;;;;2.00;1.40;;;8.50;99.90;;;;;;5058852;28;20188;-43
2023/12/21 00:03:49;;;;;;;1.17;0.90;;;8.50;99.90;;;;;;5058380;28;20206;-43
2023/12/21 00:06:16;;;;;;;4.23;1.90;;;8.50;99.90;;;;;;5058589;28;20211;-43
2023/12/21 00:08:43;;;;;;;3.20;1.60;;;8.50;99.90;;;;;;5076015;28;20177;-43
2023/12/21 00:11:10;;;;;;;2.87;1.60;;;8.50;99.90;;;;;;5057551;28;20210;-43
2023/12/21 00:13:36;;;;;;;2.73;1.47;;;8.50;99.90;;;;;;5075890;28;20535;-44
2023/12/21 00:16:05;;;;;;;1.53;0.90;;;8.50;99.90;;;;;;5058318;28;20186;-45
2023/12/21 00:18:30;;;;;;;1.17;1.07;;;8.60;99.90;;;;;;5076437;28;20211;-43
2023/12/21 00:20:57;;;;;;;2.10;1.90;;;8.50;99.90;;;;;;5043151;28;20235;-43
2023/12/21 00:23:26;;;;;;;2.87;1.60;;;8.60;99.90;;;;;;5076145;28;20189;-43
2023/12/21 00:25:58;;;;;;;2.13;1.70;;;8.60;99.90;;;;;;5075260;28;20234;-43
2023/12/21 00:28:29;;;;;;;3.50;1.87;;;8.60;99.90;;;;;;5075860;28;20167;-43
2023/12/21 00:30:55;;;;;;;3.77;2.50;;;8.60;99.90;;;;;;5072645;28;20216;-43
2023/12/21 00:33:22;;;;;;;3.00;2.07;;;8.60;99.90;;;;;;5058705;28;20256;-43
2023/12/21 00:35:50;;;;;;;6.27;2.20;;;8.60;99.90;;;;;;5075584;28;20174;-42
2023/12/21 00:38:17;;;;;;;6.63;2.90;;;8.60;99.90;;;;;;5075734;28;20265;-44
2023/12/21 00:40:43;;;;;;;3.33;2.00;;;8.60;99.90;;;;;;5075386;28;20203;-44
2023/12/21 00:43:09;;;;;;;6.03;2.60;;;8.60;99.90;;;;;;5075604;28;20168;-45
2023/12/21 00:45:38;;;;;;;2.27;1.70;;;8.60;99.90;;;;;;5075592;28;20180;-43
2023/12/21 00:48:04;;;;;;;3.13;1.83;;;8.60;99.90;;;;;;5075588;28;20183;-43
2023/12/21 00:50:30;;;;;;;5.50;2.67;;;8.60;99.90;;;;;;5057791;28;20200;-45
2023/12/21 00:52:59;;;;;;;4.37;2.77;;;8.60;99.90;;;;;;5075347;28;20182;-44
2023/12/21 00:55:25;;;;;;;5.67;2.90;;;8.60;99.90;;;;;;5057685;28;20170;-43
2023/12/21 00:57:53;;;;;;;8.63;3.03;;;8.70;99.90;;;;;;5075213;28;20168;-44
2023/12/21 01:00:22;;;;;;;5.43;3.27;;;8.60;99.90;;;;;;5075515;28;20211;-43
2023/12/21 01:02:51;;;;;;;7.10;3.33;;;8.60;99.90;;;;;;5076218;28;20271;-44
2023/12/21 01:05:16;;;;;;;6.03;3.23;;;8.60;99.90;;;;;;5058742;28;20185;-44
2023/12/21 01:07:45;;;;;;;4.13;2.37;;;8.70;99.90;;;;;;5075641;28;20785;-49
2023/12/21 01:10:17;;;;;;;6.20;3.57;;;8.80;99.90;;;;;;5075460;28;20197;-47
2023/12/21 01:12:46;;;;;;;3.60;2.53;;;8.70;99.90;;;;;;5075390;28;20217;-49
2023/12/21 01:15:12;;;;;;;6.83;3.30;;;8.70;99.90;;;;;;5075227;28;20273;-48
2023/12/21 01:17:43;;;;;;;4.90;3.10;;;8.70;99.90;;;;;;5056928;28;20192;-48
2023/12/21 01:20:10;;;;;;;5.23;2.20;;;8.70;99.90;;;;;;5074712;28;20555;-47
2023/12/21 01:22:40;;;;;;;2.37;2.10;;;8.70;99.90;;;;;;5073910;28;20585;-47
2023/12/21 01:25:09;;;;;;;8.53;2.47;;;8.70;99.90;;;;;;5074269;28;20184;-48
2023/12/21 01:27:38;;;;;;;6.97;2.33;;;8.70;99.90;;;;;;5074485;28;20683;-46
2023/12/21 01:30:04;;;;;;;4.07;2.53;;;8.70;99.90;;;;;;5074542;28;20752;-49
2023/12/21 01:32:30;;;;;;;3.40;2.40;;;8.70;99.90;;;;;;5056876;28;20207;-48
2023/12/21 01:34:55;;;;;;;7.53;2.50;;;8.70;99.90;;;;;;5074865;28;20213;-48
2023/12/21 01:37:21;;;;;;;4.30;2.20;;;8.70;99.90;;;;;;5056880;28;20256;-48
2023/12/21 01:39:47;;;;;;;4.60;2.20;;;8.70;99.90;;;;;;5074770;28;20192;-48
2023/12/21 01:42:12;;;;;;;9.50;2.47;;;8.70;99.90;;;;;;5074476;28;20512;-48
2023/12/21 01:44:43;;;;;;;3.13;2.13;;;8.70;99.90;;;;;;5073959;28;20173;-48
2023/12/21 01:47:10;;;;;;;3.77;1.97;;;8.70;99.90;;;;;;5074502;28;20216;-48
2023/12/21 01:49:35;;;;;;;6.87;2.03;;;8.70;99.90;;;;;;5056603;28;20246;-48
2023/12/21 01:52:01;;;;;;;4.10;1.47;;;8.70;99.90;;;;;;5056368;28;20207;-48
2023/12/21 01:54:29;;;;;;;2.33;1.17;;;8.70;99.90;;;;;;5074329;28;20184;-49
2023/12/21 01:56:59;;;;;;;3.17;2.00;;;8.70;99.90;;;;;;5074762;28;20631;-49
2023/12/21 01:59:30;;;;;;;3.83;2.17;;;8.70;99.90;;;;;;5074061;28;20214;-47
2023/12/21 02:01:59;;;;;;;3.53;2.03;;;8.70;99.90;;;;;;5040120;28;20223;-47
2023/12/21 02:04:27;;;;;;;10.90;2.80;;;8.70;99.90;;;;;;5074012;28;20184;-48
2023/12/21 02:06:54;;;;;;;5.43;2.30;;;8.70;99.90;;;;;;5073575;28;20218;-48
2023/12/21 02:09:20;;;;;;;5.43;2.33;;;8.70;99.90;;;;;;5073733;28;20203;-47
2023/12/21 02:12:06;;;;;;;6.30;2.20;;;8.70;99.90;;;;;;5056034;28;20178;-47
2023/12/21 02:14:31;;;;;;;4.80;2.67;;;8.70;99.90;;;;;;5056096;28;20194;-49
2023/12/21 02:17:05;;;;;;;6.67;2.90;;;8.70;99.90;;;;;;5074160;28;20190;-47
2023/12/21 02:19:31;;;;;;;4.20;2.27;;;8.70;99.90;;;;;;5072897;28;20308;-49
2023/12/21 02:21:59;;;;;;;2.10;1.80;;;8.70;99.90;;;;;;5073829;28;20264;-47
2023/12/21 02:24:27;;;;;;;3.70;2.50;;;8.70;99.90;;;;;;5056330;28;20189;-46
2023/12/21 02:26:56;;;;;;;5.03;2.03;;;8.70;99.90;;;;;;5073920;28;20226;-48
2023/12/21 02:29:22;;;;;;;7.20;2.90;;;8.70;99.90;;;;;;5073457;28;20195;-48
2023/12/21 02:31:48;;;;;;;3.97;2.27;;;8.70;99.90;;;;;;5073862;28;20191;-49
2023/12/21 02:34:17;;;;;;;5.23;1.67;;;8.70;99.90;;;;;;5073639;28;20182;-48
2023/12/21 02:36:43;;;;;;;5.60;2.50;;;8.70;99.90;;;;;;5073504;28;20234;-47
2023/12/21 02:39:09;;;;;;;8.07;2.70;;;8.80;99.90;;;;;;5073405;28;20179;-46
2023/12/21 02:41:34;;;;;;;5.93;2.50;;;8.80;99.90;;;;;;5073359;28;20254;-47
2023/12/21 02:44:03;;;;;;;7.90;2.87;;;8.80;99.90;;;;;;5055806;28;20182;-47
2023/12/21 02:46:28;;;;;;;5.13;2.60;;;8.80;99.90;;;;;;5073694;28;20210;-47
2023/12/21 02:48:54;;;;;;;9.00;2.67;;;8.80;99.90;;;;;;5055826;28;20186;-48
2023/12/21 02:51:23;;;;;;;5.07;2.60;;;8.80;99.90;;;;;;5073687;28;20238;-49
2023/12/21 02:53:49;;;;;;;7.50;2.87;;;8.80;99.90;;;;;;5073662;28;20187;-48
2023/12/21 02:56:15;;;;;;;6.00;3.47;;;8.80;99.90;;;;;;5073691;28;20197;-47
2023/12/21 02:58:41;;;;;;;6.87;2.87;;;8.80;99.90;;;;;;5055591;28;20234;-48
2023/12/21 03:01:07;;;;;;;4.20;2.87;;;8.80;99.90;;;;;;5055594;28;20627;-46
2023/12/21 03:03:32;;;;;;;6.43;2.47;;;8.80;99.90;;;;;;5055355;28;20251;-47
2023/12/21 03:06:01;;;;;;;8.93;2.80;;;8.80;99.90;;;;;;5073516;28;20605;-47
2023/12/21 03:08:28;;;;;;;4.87;2.77;;;8.70;99.90;;;;;;5056381;28;20525;-47
2023/12/21 03:10:54;;;;;;;4.90;2.33;;;8.80;99.90;;;;;;5073178;28;20662;-48
2023/12/21 03:13:19;;;;;;;5.43;2.87;;;8.80;99.90;;;;;;5073601;28;20194;-47
2023/12/21 03:15:45;;;;;;;7.40;2.73;;;8.80;99.90;;;;;;5073487;28;20210;-48
2023/12/21 03:18:12;;;;;;;6.17;3.20;;;8.80;99.90;;;;;;5073748;28;20176;-48
2023/12/21 03:20:44;;;;;;;4.27;2.17;;;8.80;99.90;;;;;;5073180;28;20232;-47
2023/12/21 03:23:14;;;;;;;4.47;2.00;;;8.80;99.90;;;;;;5073252;28;20591;-48
2023/12/21 03:25:43;;;;;;;6.83;2.50;;;8.80;99.90;;;;;;5073321;28;20599;-47
2023/12/21 03:28:10;;;;;;;5.23;2.27;;;8.80;99.90;;;;;;5073181;28;20202;-50
2023/12/21 03:30:35;;;;;;;5.97;2.60;;;8.80;99.90;;;;;;5073646;28;20208;-48
2023/12/21 03:33:05;;;;;;;6.27;2.30;;;8.80;99.90;;;;;;5055551;28;20579;-48
2023/12/21 03:35:33;;;;;;;6.97;2.97;;;8.90;99.90;;;;;;5055794;28;20257;-47
2023/12/21 03:37:58;;;;;;;6.30;2.20;;;8.90;99.90;;;;;;5072973;28;20182;-47
2023/12/21 03:40:24;;;;;;;4.17;2.07;;;8.90;99.90;;;;;;5055066;28;20787;-48
2023/12/21 03:42:56;;;;;;;4.40;2.50;;;8.90;99.90;;;;;;5055707;28;20232;-46
2023/12/21 03:45:24;;;;;;;4.93;2.67;;;8.80;99.90;;;;;;5072672;28;20202;-49
2023/12/21 03:47:56;;;;;;;4.90;2.53;;;8.90;99.90;;;;;;5076235;28;20226;-49
2023/12/21 03:50:22;;;;;;;2.63;1.90;;;8.80;99.90;;;;;;5076707;28;20626;-48
2023/12/21 03:52:47;;;;;;;4.63;2.63;;;8.90;99.90;;;;;;5076690;28;20172;-47
2023/12/21 03:55:13;;;;;;;5.43;2.57;;;8.80;99.90;;;;;;5076657;28;20190;-48
2023/12/21 03:57:39;;;;;;;3.07;1.90;;;8.80;99.90;;;;;;5058770;28;20181;-48
2023/12/21 04:00:08;;;;;;;7.27;2.60;;;8.80;99.90;;;;;;5076807;28;20561;-48
2023/12/21 04:02:38;;;;;;;5.03;2.30;;;8.80;99.90;;;;;;5076464;28;20270;-47
2023/12/21 04:05:05;;;;;;;4.43;2.43;;;8.80;99.90;;;;;;5076758;28;20202;-47
2023/12/21 04:07:36;;;;;;;5.27;2.10;;;8.80;99.90;;;;;;5076155;28;20681;-49
2023/12/21 04:10:05;;;;;;;6.20;2.10;;;8.80;99.90;;;;;;5076018;28;20224;-47
2023/12/21 04:12:32;;;;;;;4.63;2.03;;;8.80;99.90;;;;;;5058258;28;20278;-47
2023/12/21 04:15:01;;;;;;;2.47;1.60;;;8.80;99.90;;;;;;5057560;28;20657;-48
2023/12/21 04:17:28;;;;;;;4.53;2.53;;;8.80;99.90;;;;;;5058373;28;20194;-48
2023/12/21 04:19:55;;;;;;;6.10;2.00;;;8.80;99.90;;;;;;5075903;28;20235;-48
2023/12/21 04:22:21;;;;;;;3.40;2.20;;;8.90;99.90;;;;;;5075927;28;20588;-47
2023/12/21 04:24:46;;;;;;;3.30;2.33;;;8.80;99.90;;;;;;5058006;28;20266;-47
2023/12/21 04:27:20;;;;;;;2.77;1.57;;;8.90;99.90;;;;;;5075831;28;20278;-48
2023/12/21 04:29:46;;;;;;;6.80;1.90;;;8.90;99.90;;;;;;5076046;28;20210;-47
2023/12/21 04:32:11;;;;;;;5.00;2.40;;;8.90;99.90;;;;;;5076152;28;20185;-49
2023/12/21 04:34:37;;;;;;;5.27;1.80;;;8.90;99.90;;;;;;5076496;28;20199;-47
2023/12/21 04:37:04;;;;;;;6.47;2.53;;;8.90;99.90;;;;;;5075496;28;20193;-47
2023/12/21 04:39:33;;;;;;;6.67;2.20;;;8.90;99.90;;;;;;5076263;28;20241;-47
2023/12/21 04:42:04;;;;;;;3.57;2.00;;;8.90;99.90;;;;;;5057897;28;20531;-48
2023/12/21 04:44:33;;;;;;;4.97;2.00;;;8.90;99.90;;;;;;5075522;28;20631;-47
2023/12/21 04:47:05;;;;;;;2.27;1.30;;;8.90;99.90;;;;;;5075429;28;20268;-47
2023/12/21 04:49:32;;;;;;;3.07;1.60;;;8.90;99.90;;;;;;5076459;28;20206;-47
2023/12/21 04:51:57;;;;;;;2.67;1.67;;;8.90;99.90;;;;;;5075852;28;20180;-48
2023/12/21 04:54:26;;;;;;;5.73;1.60;;;8.90;99.90;;;;;;5075355;28;20601;-48
2023/12/21 04:56:53;;;;;;;4.40;1.93;;;8.90;99.90;;;;;;5057201;28;20191;-48
2023/12/21 04:59:19;;;;;;;1.20;0.93;;;9.00;99.90;;;;;;5075033;28;20249;-48
2023/12/21 05:01:54;;;;;;;7.97;2.27;;;8.90;99.90;;;;;;5058089;28;20615;-49
2023/12/21 05:04:19;;;;;;;8.20;2.60;;;9.00;99.90;;;;;;5070142;28;20275;-47
2023/12/21 05:06:45;;;;;;;10.97;2.53;;;8.90;99.90;;;;;;5075623;28;20214;-47
2023/12/21 05:09:12;;;;;;;2.93;1.60;;;8.90;99.90;;;;;;5075114;28;20230;-49
2023/12/21 05:11:38;;;;;;;3.87;1.73;;;8.90;99.90;;;;;;5057792;28;20540;-48
2023/12/21 05:14:04;;;;;;;4.90;2.10;;;9.00;99.90;;;;;;5039603;28;20183;-47
2023/12/21 05:16:33;;;;;;;4.57;1.73;;;9.00;99.90;;;;;;5075453;28;20533;-47
2023/12/21 05:18:58;;;;;;;4.50;1.93;;;9.00;99.90;;;;;;5074953;28;20561;-47
2023/12/21 05:21:25;;;;;;;8.10;2.40;;;9.00;99.90;;;;;;5074995;28;20270;-49
2023/12/21 05:23:52;;;;;;;10.00;3.03;;;9.00;99.90;;;;;;5075128;28;20235;-47
2023/12/21 05:26:19;;;;;;;7.90;3.20;;;9.00;99.90;;;;;;5057237;28;20229;-49
2023/12/21 05:28:48;;;;;;;10.70;2.90;;;9.00;99.90;;;;;;5074860;28;20180;-47
2023/12/21 05:34:38;;;;;;;7.40;3.20;;;9.00;99.90;;;;;;5075886;28;20256;-48
2023/12/21 05:37:04;;;;;;;5.73;2.43;;;9.00;99.90;;;;;;5077485;28;20539;-48
2023/12/21 05:39:30;;;;;;;9.90;2.43;;;9.00;99.90;;;;;;5076696;28;20213;-46
2023/12/21 05:41:57;;;;;;;5.10;2.37;;;9.10;99.90;;;;;;5076747;28;20174;-48
2023/12/21 05:44:27;;;;;;;12.40;3.37;;;9.00;99.90;;;;;;5076093;28;20191;-47
2023/12/21 05:46:53;;;;;;;8.17;2.90;;;9.10;99.90;;;;;;5074938;28;20219;-47
2023/12/21 05:49:22;;;;;;;15.77;3.20;;;9.00;99.90;;;;;;5073503;28;20288;-47
2023/12/21 05:51:48;;;;;;;10.33;3.17;;;9.00;99.90;;;;;;5074401;28;20233;-46
2023/12/21 05:54:18;;;;;;;8.63;2.07;;;9.10;99.90;;;;;;5071859;28;20216;-48
2023/12/21 05:56:47;;;;;;;8.00;2.87;;;9.10;99.90;;;;;;5072005;28;20283;-49
2023/12/21 05:59:16;;;;;;;13.37;3.30;;;9.10;99.90;;;;;;5074042;28;20286;-48
2023/12/21 06:01:42;;;;;;;10.53;3.23;;;9.10;99.90;;;;;;5075096;28;20212;-47
2023/12/21 06:04:09;;;;;;;8.97;2.97;;;9.10;99.90;;;;;;5074834;28;20199;-47
2023/12/21 06:06:36;;;;;;;10.33;3.43;;;9.20;99.90;;;;;;5073752;28;20211;-47
2023/12/21 06:09:02;;;;;;;17.90;3.73;;;9.20;99.90;;;;;;5062699;28;20196;-48
2023/12/21 06:11:34;;;;;;;11.67;2.97;;;9.10;99.90;;;;;;5074343;28;20182;-48
2023/12/21 06:13:59;;;;;;;8.20;2.67;;;9.20;99.90;;;;;;5074061;28;20168;-48
2023/12/21 06:16:25;;;;;;;13.67;3.17;;;9.20;99.90;;;;;;5056244;28;20217;-47
2023/12/21 06:18:51;;;;;;;7.07;2.60;;;9.20;99.90;;;;;;5073981;28;20194;-48
2023/12/21 06:21:17;;;;;;;12.80;3.80;;;9.20;99.90;;;;;;5056143;28;20189;-46
2023/12/21 06:23:45;;;;;;;6.07;2.40;;;9.20;99.90;;;;;;5074144;28;20200;-50
2023/12/21 06:26:11;;;;;;;4.47;2.17;;;9.20;99.90;;;;;;5075089;28;20545;-48
2023/12/21 06:28:43;;;;;;;11.60;2.90;;;9.20;99.90;;;;;;5073835;28;20216;-48
2023/12/21 06:31:14;;;;;;;9.53;2.37;;;9.20;99.90;;;;;;5056046;28;20227;-47
2023/12/21 06:33:41;;;;;;;5.03;2.00;;;9.20;99.90;;;;;;5073264;28;20199;-48
2023/12/21 06:36:08;;;;;;;9.70;2.47;;;9.20;99.90;;;;;;5073575;28;20190;-47
2023/12/21 06:38:37;;;;;;;10.53;2.30;;;9.20;99.90;;;;;;5073648;28;20205;-49
2023/12/21 06:41:06;;;;;;;10.87;3.37;;;9.20;99.90;;;;;;5073657;28;20205;-47
2023/12/21 06:44:15;;;;;;;12.13;2.60;;;9.20;99.90;;;;;;5073849;28;20188;-46
2023/12/21 06:46:41;;;;;;;14.13;3.47;;;9.20;99.90;;;;;;5074212;28;20213;-48
2023/12/21 06:49:11;;;;;;;8.90;2.37;;;9.20;99.90;;;;;;5073348;28;20697;-47
2023/12/21 06:51:41;;;;;;;7.23;2.60;;;9.20;99.90;;;;;;5073621;28;20171;-47
2023/12/21 06:54:06;;;;;;;7.03;1.83;;;9.20;99.90;;;;;;5073340;28;20177;-48
2023/12/21 06:56:35;;;;;;;17.07;3.40;;;9.30;99.90;;;;;;5055928;28;20711;-47
2023/12/21 06:59:06;;;;;;;12.30;3.13;;;9.30;99.90;;;;;;5073503;28;20185;-47
2023/12/21 07:01:36;;;;;;;14.83;3.27;;;9.30;99.90;;;;;;5073667;28;20233;-46
2023/12/21 07:04:04;;;;;;;8.10;3.27;;;9.30;99.90;;;;;;5073478;28;20202;-47
2023/12/21 07:06:30;;;;;;;14.30;3.60;;;9.30;99.90;;;;;;5073222;28;20211;-48
2023/12/21 07:08:55;;;;;;;10.17;3.13;;;9.30;99.90;;;;;;5073371;28;20189;-49
2023/12/21 07:11:21;;;;;;;6.60;2.50;;;9.30;99.90;;;;;;5073403;28;20182;-48
2023/12/21 07:13:48;;;;;;;7.30;2.37;;;9.30;99.90;;;;;;5073752;28;20186;-49
2023/12/21 07:16:14;;;;;;;9.10;2.87;;;9.30;99.90;;;;;;5074306;28;20178;-47
2023/12/21 07:18:41;;;;;;;11.57;3.50;;;9.30;99.90;;;;;;5073538;28;20180;-48
2023/12/21 07:21:06;;;;;;;12.77;3.50;;;9.40;99.90;;;;;;5074164;28;20206;-50
2023/12/21 07:23:33;;;;;;;16.10;3.27;;;9.40;99.90;;;;;;5077118;28;20179;-48
2023/12/21 07:26:02;;;;;;;14.50;3.53;;;9.40;99.90;;;;;;5077592;28;20190;-47
2023/12/21 07:28:37;;;;;;;13.73;3.83;;;9.40;99.90;;;;;;5076324;28;20779;-48
2023/12/21 07:34:29;;;;;;;11.23;3.20;;;9.40;99.90;;;;;;5077371;28;20219;-49
2023/12/21 07:36:58;;;;;;;18.90;3.17;;;9.40;99.90;;;;;;5076687;28;20193;-47
2023/12/21 07:39:23;;;;;;;8.83;2.83;;;9.50;99.90;;;;;;5076584;28;20246;-48
2023/12/21 07:41:52;;;;;;;9.87;2.77;;;9.40;99.90;;;;;;5058944;28;20222;-48
2023/12/21 07:44:18;;;;;;;8.73;2.27;;;9.50;99.90;;;;;;5076691;28;20262;-48
2023/12/21 07:46:43;;;;;;;12.57;3.10;;;9.50;99.90;;;;;;5076683;28;20286;-48
2023/12/21 07:53:12;;;;;;;5.80;2.37;;;9.50;99.90;;;;;;5076696;28;20166;-47
2023/12/21 07:55:59;;;;;;;12.03;3.00;;;9.50;99.90;;;;;;5076759;28;20171;-50
2023/12/21 07:58:26;;;;;;;9.83;2.67;;;9.50;99.90;;;;;;5075754;28;20214;-47
2023/12/21 08:00:52;;;;;;;11.43;3.07;;;9.60;99.90;;;;;;5058912;28;20248;-47
2023/12/21 08:03:17;;;;;;;14.30;3.27;;;9.50;99.90;;;;;;5077105;28;20191;-49
2023/12/21 08:05:44;;;;;;;6.87;2.60;;;9.60;99.90;;;;;;5077336;28;20259;-48
2023/12/21 08:08:13;;;;;;;15.03;3.23;;;9.60;99.90;;;;;;5076786;28;20610;-48
2023/12/21 08:10:39;;;;;;;8.20;2.53;;;9.50;99.90;;;;;;5076936;28;20192;-49
2023/12/21 08:13:08;;;;;;;10.17;2.70;;;9.60;99.90;;;;;;5076800;28;20169;-48
2023/12/21 08:15:34;;;;;;;10.77;2.33;;;9.60;99.90;;;;;;5077304;28;20191;-48
2023/12/21 08:18:55;;;;;;;4.80;1.70;;;9.60;99.90;;;;;;5059419;28;20218;-47
2023/12/21 08:21:21;;;;;;;5.70;2.13;;;9.60;99.90;;;;;;5077235;28;20183;-48
2023/12/21 08:23:47;;;;;;;8.23;2.60;;;9.60;99.90;;;;;;5076815;28;20252;-48
2023/12/21 08:26:13;;;;;;;6.60;1.73;;;9.60;99.90;;;;;;5077385;28;20207;-48
2023/12/21 08:28:38;;;;;;;7.93;2.23;;;9.60;99.90;;;;;;5075586;28;20199;-49
2023/12/21 08:31:13;;;;;;;11.20;2.73;;;9.60;99.90;;;;;;5058196;28;20207;-49
2023/12/21 08:33:47;;;;;;;16.60;2.93;;;9.60;99.90;;;;;;5075489;28;20198;-48
2023/12/21 08:36:15;;;;;;;9.07;2.10;;;9.60;99.90;;;;;;5076832;28;20232;-48
2023/12/21 08:38:40;;;;;;;6.07;1.93;;;9.60;99.90;;;;;;5057687;28;20219;-49
2023/12/21 08:41:06;;;;;;;4.83;2.30;;;9.60;99.90;;;;;;5076329;28;20290;-47
2023/12/21 08:43:45;;;;;;;4.77;1.60;;;9.60;99.90;;;;;;5075223;28;20637;-49
2023/12/21 08:46:14;;;;;;;3.80;1.13;;;9.60;99.90;;;;;;5075872;28;20183;-48
2023/12/21 08:48:41;;;;;;;1.30;1.13;;;9.50;99.90;;;;;;5075406;28;20581;-49
2023/12/21 08:51:06;;;;;;;4.33;1.73;;;9.60;99.90;;;;;;5057494;28;20233;-48
2023/12/21 08:53:35;;;;;;;3.87;1.47;;;9.50;99.90;;;;;;5076033;28;20652;-48
2023/12/21 08:56:05;;;;;;;5.37;1.90;;;9.50;99.90;;;;;;5056153;28;20236;-48
2023/12/21 08:58:30;;;;;;;3.53;1.63;;;9.50;99.90;;;;;;5075404;28;20171;-48
2023/12/21 09:01:02;;;;;;;6.47;1.40;;;9.60;99.90;;;;;;5057677;28;20539;-47
2023/12/21 09:03:31;;;;;;;5.20;1.90;;;9.60;99.90;;;;;;5074772;28;20198;-48
2023/12/21 09:05:57;;;;;;;8.33;1.90;;;9.60;99.90;;;;;;5074925;28;20192;-48
2023/12/21 09:08:23;;;;;;;6.47;1.80;;;9.60;99.90;;;;;;5075395;28;20200;-48
2023/12/21 09:10:48;;;;;;;2.90;1.43;;;9.60;99.90;;;;;;5057019;28;20218;-47
2023/12/21 09:13:25;;;;;;;3.03;1.40;;;9.60;99.90;;;;;;5074862;28;20174;-49
2023/12/21 09:15:53;;;;;;;3.50;1.60;;;9.60;99.90;;;;;;5074797;28;20539;-50
2023/12/21 09:18:20;;;;;;;9.13;2.20;;;9.60;99.90;;;;;;5075234;28;20162;-47
2023/12/21 09:20:46;;;;;;;4.00;1.53;;;9.60;99.90;;;;;;5056931;28;20545;-49
2023/12/21 09:23:21;;;;;;;2.00;0.90;;;9.60;99.90;;;;;;5074890;28;20243;-48
2023/12/21 09:25:53;;;;;;;3.87;1.70;;;9.60;99.90;;;;;;5056847;28;20191;-47
2023/12/21 09:28:22;;;;;;;9.87;1.90;;;9.60;99.90;;;;;;5074417;28;20278;-48
2023/12/21 09:30:51;;;;;;;2.20;1.00;;;9.70;99.90;;;;;;5056620;28;20191;-49
2023/12/21 09:33:20;;;;;;;2.30;0.90;;;9.70;99.90;;;;;;5074687;28;20171;-48
2023/12/21 09:36:01;;;;;;;2.50;0.80;;;9.60;99.90;;;;;;5072285;28;20191;-49
2023/12/21 09:38:27;;;;;;;1.30;1.10;;;9.60;99.90;;;;;;5073947;28;20234;-43
2023/12/21 09:40:57;;;;;;;2.57;1.13;;;9.60;99.90;;;;;;5074576;28;20251;-43
2023/12/21 09:43:23;;;;;;;5.10;1.33;;;9.70;99.90;;;;;;5074110;28;20167;-43
2023/12/21 09:45:52;;;;;;;2.03;0.63;;;9.70;99.90;;;;;;5074569;28;20189;-43
2023/12/21 09:48:25;;;;;;;2.77;1.33;;;9.70;99.90;;;;;;5056322;28;20211;-43
2023/12/21 09:50:52;;;;;;;1.40;0.70;;;9.70;99.90;;;;;;5051943;28;20233;-43
2023/12/21 09:53:22;;;;;;;0.60;0.60;;;9.70;99.90;;;;;;5074692;28;20254;-44
2023/12/21 09:55:52;;;;;;;2.70;1.37;;;9.70;99.90;;;;;;5074626;28;20171;-43
2023/12/21 09:58:19;;;;;;;3.13;1.03;;;9.70;99.90;;;;;;5074151;28;20178;-43
2023/12/21 10:00:45;;;;;;;2.10;0.87;;;9.70;99.90;;;;;;5074147;28;20298;-44
2023/12/21 10:03:18;;;;;;;2.20;0.70;;;9.70;99.90;;;;;;5074073;28;20218;-42
2023/12/21 10:05:44;;;;;;;3.10;0.77;;;9.70;99.90;;;;;;5063509;28;20658;-43
2023/12/21 10:08:09;;;;;;;3.40;0.90;;;9.80;99.90;;;;;;5074028;28;20199;-43
2023/12/21 10:10:41;;;;;;;4.03;1.20;;;9.70;99.90;;;;;;5073925;28;20592;-43
2023/12/21 10:13:16;;;;;;;1.67;0.97;;;9.70;99.90;;;;;;5073871;28;20203;-43
2023/12/21 10:15:43;;;;;;;5.93;1.13;;;9.80;99.90;;;;;;5074023;28;20178;-43
2023/12/21 10:18:31;;;;;;;1.17;0.93;;;9.80;99.90;;;;;;5056809;28;20193;-43
2023/12/21 10:20:59;;;;;;;1.50;1.00;;;9.80;99.90;;;;;;5074275;28;20203;-44
2023/12/21 10:23:42;;;;;;;6.27;1.50;;;9.80;99.90;;;;;;5074413;28;20232;-44
2023/12/21 10:26:08;;;;;;;3.10;1.10;;;9.80;99.90;;;;;;5074527;28;20176;-44
2023/12/21 10:28:33;;;;;;;1.63;0.70;;;9.80;99.90;;;;;;5074001;28;20256;-43
2023/12/21 10:31:36;;;;;;;4.17;1.70;;;9.80;99.90;;;;;;5073921;28;20236;-44
2023/12/21 10:34:14;;;;;;;5.17;1.67;;;9.80;99.90;;;;;;5073689;28;20184;-43
2023/12/21 10:36:46;;;;;;;2.23;1.07;;;9.80;99.90;;;;;;5056228;28;20225;-43
2023/12/21 10:39:14;;;;;;;5.40;1.57;;;9.80;99.90;;;;;;5074040;28;20213;-43
2023/12/21 10:41:44;;;;;;;4.93;1.77;;;9.90;99.90;;;;;;5067544;28;20205;-42
2023/12/21 10:47:38;;;;;;;2.73;1.13;;;9.90;99.90;;;;;;5074409;28;20273;-42
2023/12/21 10:50:07;;;;;;;4.50;1.33;;;9.90;99.90;;;;;;5073964;28;20583;-42
2023/12/21 10:52:34;;;;;;;5.93;1.80;;;9.90;99.90;;;;;;5072820;28;20207;-44
2023/12/21 10:55:03;;;;;;;4.07;2.13;;;9.90;99.90;;;;;;5073793;28;20278;-43
2023/12/21 10:57:32;;;;;;;4.30;2.03;;;9.90;99.90;;;;;;5077784;28;20182;-44
2023/12/21 11:00:00;;;;;;;4.67;1.40;;;9.90;99.90;;;;;;5077783;28;20217;-44
2023/12/21 11:02:29;;;;;;;5.00;1.47;;;9.90;99.90;;;;;;5078659;28;20183;-45
2023/12/21 11:04:58;;;;;;;2.87;1.47;;;9.90;99.90;;;;;;5077851;28;20196;-44
2023/12/21 11:07:34;;;;;;;3.63;1.80;;;10.00;99.90;;;;;;5077794;28;20246;-43
2023/12/21 11:10:00;;;;;;;4.13;1.33;;;10.00;99.90;;;;;;5077834;28;20273;-42
2023/12/21 11:12:29;;;;;;;4.67;1.57;;;10.00;99.90;;;;;;5078152;28;20201;-43
2023/12/21 11:14:56;;;;;;;6.00;1.60;;;10.00;99.90;;;;;;5077925;28;20194;-45
2023/12/21 11:17:26;;;;;;;4.97;1.73;;;10.00;99.90;;;;;;5077474;28;20175;-42
2023/12/21 11:19:59;;;;;;;7.87;1.47;;;10.10;99.90;;;;;;5059219;28;20204;-44
2023/12/21 11:22:25;;;;;;;1.83;1.00;;;10.10;99.90;;;;;;5077477;28;20187;-43
2023/12/21 11:25:06;;;;;;;9.37;2.03;;;10.10;99.90;;;;;;5077179;28;20620;-44
2023/12/21 11:27:36;;;;;;;3.63;1.47;;;10.10;99.90;;;;;;5078019;28;20717;-45
2023/12/21 11:30:18;;;;;;;14.97;2.13;;;10.20;99.90;;;;;;5077208;28;20282;-43
2023/12/21 11:32:46;;;;;;;4.63;1.50;;;10.20;99.90;;;;;;5077792;28;20167;-44
2023/12/21 11:35:25;;;;;;;4.93;1.77;;;10.20;99.90;;;;;;5077058;28;20275;-43
2023/12/21 11:37:57;;;;;;;4.17;1.40;;;10.20;99.90;;;;;;5072208;28;20210;-44
2023/12/21 11:40:24;;;;;;;3.43;1.63;;;10.20;99.90;;;;;;5078076;28;20587;-44
2023/12/21 11:42:56;;;;;;;8.97;2.20;;;10.30;99.90;;;;;;5076690;28;20266;-43
2023/12/21 11:49:33;;;;;;;1.70;1.23;;;10.30;99.90;;;;;;5077114;28;20709;-45
2023/12/21 11:52:00;;;;;;;4.43;1.33;;;10.40;99.90;;;;;;5076872;28;20196;-43
2023/12/21 11:54:26;;;;;;;3.77;2.00;;;10.50;99.90;;;;;;5077236;28;20242;-43
2023/12/21 11:57:08;;;;;;;4.23;1.77;;;10.50;99.90;;;;;;5077216;28;20164;-44
2023/12/21 11:59:37;;;;;;;2.70;1.60;;;10.50;99.90;;;;;;5058186;28;20687;-42
2023/12/21 12:02:11;;;;;;;5.60;1.30;;;10.60;99.90;;;;;;5076644;28;20654;-44
2023/12/21 12:04:49;;;;;;;2.77;1.30;;;10.70;99.90;;;;;;5076069;28;20198;-44
2023/12/21 12:07:18;;;;;;;1.73;1.50;;;10.70;99.90;;;;;;5076153;28;20201;-44
2023/12/21 12:09:48;;;;;;;4.33;1.27;;;10.80;99.90;;;;;;5076365;28;20542;-44
2023/12/21 12:12:14;;;;;;;4.43;1.40;;;10.80;99.90;;;;;;5076597;28;20183;-44
2023/12/21 12:14:39;;;;;;;1.70;1.43;;;10.80;99.90;;;;;;5076378;28;20179;-44
2023/12/21 12:17:06;;;;;;;2.20;1.20;;;10.90;99.90;;;;;;5076745;28;20271;-43
2023/12/21 12:22:55;;;;;;;5.30;1.50;;;10.90;99.90;;;;;;5076671;28;20212;-42
2023/12/21 12:25:21;;;;;;;1.03;1.03;;;11.00;99.90;;;;;;5058821;28;20182;-43
2023/12/21 12:27:50;;;;;;;3.80;1.33;;;11.00;99.90;;;;;;5075733;28;20593;-42
2023/12/21 12:30:15;;;;;;;1.60;1.00;;;10.90;99.90;;;;;;5075770;28;20219;-44
2023/12/21 12:32:55;;;;;;;2.67;1.60;;;10.90;99.90;;;;;;5075999;28;20171;-44
2023/12/21 12:35:21;;;;;;;2.10;1.20;;;11.00;99.90;;;;;;5075812;28;20163;-45
2023/12/21 12:37:48;;;;;;;2.03;1.30;;;11.00;99.90;;;;;;5075832;28;20550;-43
2023/12/21 12:40:14;;;;;;;3.07;0.97;;;11.10;99.90;;;;;;5075599;28;20613;-43
2023/12/21 12:42:40;;;;;;;1.80;0.93;;;11.10;99.90;;;;;;5075629;28;20258;-42
2023/12/21 12:45:07;;;;;;;1.10;0.93;;;11.10;99.90;;;;;;5075592;28;20537;-43
2023/12/21 12:47:36;;;;;;;1.77;0.93;;;11.00;99.90;;;;;;5068845;28;20218;-45
2023/12/21 12:50:06;;;;;;;2.87;0.80;;;11.10;99.90;;;;;;5075973;28;20192;-44
2023/12/21 12:52:31;;;;;;;1.10;0.90;;;11.10;99.90;;;;;;5057677;28;20701;-44
2023/12/21 12:55:23;;;;;;;1.43;0.90;;;11.10;99.90;;;;;;5076016;28;20270;-43
2023/12/21 12:57:58;;;;;;;1.10;0.90;;;11.10;99.90;;;;;;5075819;28;20222;-42
2023/12/21 13:00:25;;;;;;;3.53;1.10;;;11.20;99.90;;;;;;5057867;28;20199;-44
2023/12/21 13:02:54;;;;;;;1.13;1.07;;;11.20;99.90;;;;;;5075820;28;20175;-44
2023/12/21 13:05:21;;;;;;;1.60;1.00;;;11.20;99.90;;;;;;5075335;28;20190;-44
2023/12/21 13:07:50;;;;;;;2.80;1.10;;;11.20;99.90;;;;;;5075153;28;20214;-44
2023/12/21 13:10:18;;;;;;;0.63;0.63;;;11.10;99.90;;;;;;5075251;28;20195;-42
2023/12/21 13:12:44;;;;;;;1.67;0.87;;;11.10;99.90;;;;;;5075193;28;20171;-43
2023/12/21 13:15:12;;;;;;;3.90;1.00;;;11.10;99.90;;;;;;5074846;28;20179;-44
2023/12/21 13:21:00;;;;;;;1.27;1.07;;;10.90;99.90;;;;;;5074847;28;20262;-43
2023/12/21 13:23:29;;;;;;;2.93;0.80;;;10.90;99.90;;;;;;5074957;28;20264;-42
2023/12/21 13:25:54;;;;;;;2.13;0.93;;;10.90;99.90;;;;;;5075269;28;20525;-44